Data for 07/29/2006

Time Sea-Level Adjusted Pressure Absolute Pressure Temperature Relative Humidity Dew Point   
(mb) (inHg) (mb) (inHg) (C) (F) (%) (C) (F)
00:05 1013 29.91 843 24.89 22.7 72.9 34 6.4 43.6
00:10 1013 29.91 843 24.89 22.7 72.9 33 5.9 42.5
00:15 1013 29.91 843 24.89 23.2 73.8 31 5.3 41.5
00:20 1013 29.91 843 24.89 23.8 74.8 30 5.6 42
00:25 1013 29.91 843 24.89 24.2 75.5 27 4.4 39.8
00:30 1014 29.94 843 24.89 24.3 75.7 31 6.4 43.6
00:35 1014 29.94 843 24.89 23.5 74.2 35 7.1 44.8
00:40 1014 29.94 843 24.89 23.2 73.8 33 6.4 43.5
00:45 1014 29.94 843 24.89 23.3 73.9 31 5.3 41.5
00:50 1014 29.94 843 24.89 23.4 74 32 5.8 42.5
00:55 1014 29.94 843 24.89 23.3 73.9 32 5.9 42.6
01:00 1014 29.94 843 24.89 23 73.4 31 5.3 41.6
01:05 1014 29.94 843 24.89 22.8 73.1 34 6.2 43.2
01:10 1014 29.94 843 24.89 22.3 72.1 33 5.4 41.7
01:15 1014 29.94 843 24.89 22.2 71.9 34 5.6 42
01:20 1014 29.94 843 24.89 22.1 71.7 33 5.3 41.5
01:25 1014 29.94 843 24.89 21.8 71.3 35 5.7 42.2
01:30 1014 29.94 843 24.89 22 71.6 31 4.5 40.1
01:35 1014 29.94 843 24.89 22.3 72.1 33 5.2 41.4
01:40 1014 29.94 843 24.89 22.2 72 31 4.5 40
01:45 1014 29.94 844 24.92 22.2 71.9 33 5.2 41.3
01:50 1014 29.94 844 24.92 22.7 72.9 29 3.8 38.9
01:55 1014 29.94 844 24.92 23 73.5 30 4.5 40.2
02:00 1014 29.94 844 24.92 22.5 72.5 32 5.2 41.3
02:05 1015 29.97 844 24.92 22 71.6 32 4.9 40.8
02:10 1015 29.97 844 24.92 22 71.7 30 4.1 39.4
02:15 1015 29.97 844 24.92 23.2 73.7 26 3.1 37.5
02:20 1015 29.97 844 24.92 23.6 74.5 28 4.1 39.4
02:25 1015 29.97 844 24.92 23.7 74.6 28 4.3 39.7
02:30 1015 29.97 844 24.92 23 73.4 30 4.7 40.4
02:35 1015 29.97 844 24.92 22.3 72.2 31 4.7 40.5
02:40 1015 29.97 844 24.92 21.8 71.3 34 5.4 41.7
02:45 1015 29.97 844 24.92 21 69.8 36 5.6 42.2
02:50 1015 29.97 844 24.92 20.5 69 35 4.9 40.8
02:55 1015 29.97 844 24.92 20.5 68.9 35 4.9 40.8
03:00 1015 29.97 844 24.92 20.9 69.5 37 5.8 42.5
03:05 1015 29.97 844 24.92 21 69.8 33 4.3 39.8
03:10 1015 29.97 844 24.92 21 69.7 40 7.2 44.9
03:15 1015 29.97 844 24.92 20.5 68.9 35 4.9 40.8
03:20 1015 29.97 844 24.92 20.5 68.9 35 4.7 40.5
03:25 1015 29.97 844 24.92 20.7 69.2 35 5 41.1
03:30 1015 29.97 844 24.92 20.2 68.3 38 5.5 41.9
03:35 1015 29.97 844 24.92 19.4 66.8 41 5.9 42.6
03:40 1015 29.97 844 24.92 19.4 66.9 37 4.7 40.4
03:45 1015 29.97 844 24.92 19.7 67.4 38 4.9 40.9
03:50 1015 29.97 844 24.92 19.7 67.5 41 6.3 43.4
03:55 1015 29.97 844 24.92 19.7 67.5 37 4.8 40.6
04:00 1015 29.97 844 24.92 19.7 67.4 40 5.7 42.2
04:05 1015 29.97 844 24.92 19.6 67.2 38 5 41.1
04:10 1015 29.97 844 24.92 19.7 67.5 35 3.9 38.9
04:15 1015 29.97 844 24.92 20.4 68.6 35 4.4 40
04:20 1015 29.97 844 24.92 20.3 68.5 35 4.6 40.3
04:25 1015 29.97 844 24.92 19.6 67.3 39 5.3 41.5
04:30 1015 29.97 844 24.92 19.2 66.5 40 5.5 41.9
04:35 1015 29.97 844 24.92 18.9 66.1 39 4.9 40.8
04:40 1015 29.97 844 24.92 18.8 65.9 40 5.1 41.2
04:45 1015 29.97 844 24.92 18.6 65.5 42 5.4 41.8
04:50 1015 29.97 844 24.92 18.3 65 42 5.3 41.5
04:55 1015 29.97 844 24.92 18.7 65.7 36 3.3 38
05:00 1015 29.97 844 24.92 19.6 67.3 35 3.8 38.8
05:05 1015 29.97 845 24.95 19.7 67.4 41 6.2 43.1
05:10 1015 29.97 845 24.95 20.2 68.3 32 3.2 37.7
05:15 1015 29.97 844 24.92 20.4 68.8 30 2.7 36.8
05:20 1015 29.97 845 24.95 20.5 69 33 3.7 38.7
05:25 1015 29.97 845 24.95 20.3 68.5 33 3.8 38.9
05:30 1016 30 845 24.95 19.6 67.3 38 5.2 41.4
05:35 1016 30 845 24.95 19.1 66.4 37 4.1 39.3
05:40 1015 29.97 845 24.95 19.1 66.4 33 2.8 37
05:45 1015 29.97 845 24.95 20.1 68.3 31 2.7 36.9
05:50 1015 29.97 845 24.95 19.9 67.8 34 3.9 39.1
05:55 1016 30 845 24.95 18.6 65.6 40 4.8 40.6
06:00 1016 30 845 24.95 19.2 66.6 32 2.4 36.3
06:05 1016 30 845 24.95 20 68 32 3.1 37.7
06:10 1016 30 845 24.95 19.9 67.8 39 5.8 42.4
06:15 1016 30 845 24.95 19.8 67.7 36 4.3 39.7
06:20 1016 30 845 24.95 19.7 67.5 35 4.2 39.5
06:25 1016 30 845 24.95 19.9 67.7 34 3.9 39
06:30 1016 30 845 24.95 18.9 66.1 42 6 42.7
06:35 1016 30 845 24.95 18.8 65.8 36 3.8 38.8
06:40 1016 30 845 24.95 19.1 66.4 36 4 39.3
06:45 1016 30 845 24.95 19.4 66.9 35 3.8 38.8
06:50 1016 30 845 24.95 19.7 67.4 37 4.6 40.4
06:55 1016 30 845 24.95 19.2 66.6 38 4.5 40.2
07:00 1016 30 845 24.95 18.8 65.9 37 4.1 39.4
07:05 1016 30 845 24.95 18.7 65.6 38 4.3 39.8
07:10 1016 30 845 24.95 18.6 65.5 37 3.9 39
07:15 1016 30 845 24.95 18.8 65.8 35 3.2 37.8
07:20 1016 30 845 24.95 18.9 66.1 38 4.3 39.7
07:25 1016 30 845 24.95 18.6 65.5 38 4.2 39.6
07:30 1016 30 845 24.95 18.6 65.5 38 4.3 39.7
07:35 1016 30 845 24.95 18.6 65.5 36 3.5 38.3
07:40 1016 30 845 24.95 19 66.2 37 4.1 39.5
07:45 1016 30 845 24.95 19.1 66.3 35 3.6 38.4
07:50 1016 30 845 24.95 19.2 66.5 37 4.4 39.9
07:55 1016 30 845 24.95 19 66.2 39 5 41
08:00 1016 30 845 24.95 19.1 66.4 39 4.8 40.6
08:05 1016 30 845 24.95 19.7 67.5 38 5.3 41.6
08:10 1016 30 845 24.95 19.7 67.5 39 5.7 42.3
08:15 1016 30 845 24.95 19.2 66.6 41 6 42.7
08:20 1016 30 845 24.95 19.3 66.7 42 6.1 43
08:25 1016 30 845 24.95 19.7 67.4 40 5.9 42.5
08:30 1016 30 845 24.95 20.2 68.3 38 5.7 42.3
08:35 1016 30 845 24.95 20.6 69 35 4.9 40.8
08:40 1016 30 845 24.95 21.3 70.3 32 4.3 39.8
08:45 1015 29.97 845 24.95 22 71.6 32 5 40.9
08:50 1015 29.97 845 24.95 22.7 72.9 33 5.8 42.4
08:55 1015 29.97 845 24.95 22.9 73.1 33 5.8 42.4
09:00 1015 29.97 845 24.95 22.9 73.2 32 5.3 41.6
09:05 1015 29.97 845 24.95 23.1 73.6 33 6.3 43.4
09:10 1015 29.97 845 24.95 23.6 74.4 34 6.9 44.4
09:15 1015 29.97 844 24.92 24.1 75.4 30 5.5 42
09:20 1015 29.97 844 24.92 24.7 76.5 29 5.9 42.6
09:25 1015 29.97 844 24.92 25.1 77.2 29 5.9 42.6
09:30 1015 29.97 844 24.92 25.5 77.9 27 5.2 41.4
09:35 1015 29.97 844 24.92 26.3 79.4 25 4.9 40.9
09:40 1015 29.97 844 24.92 27.2 80.9 24 4.9 40.8
09:45 1015 29.97 844 24.92 27.7 81.8 22 4.2 39.6
09:50 1015 29.97 844 24.92 27.8 82.1 20 3.1 37.5
09:55 1015 29.97 845 24.95 28 82.4 20 2.9 37.3
10:00 1015 29.97 845 24.95 28.4 83.2 20 3.5 38.4
10:05 1015 29.97 844 24.92 28.7 83.6 20 4.1 39.4
10:10 1015 29.97 844 24.92 28.7 83.7 20 4.2 39.6
10:15 1015 29.97 844 24.92 29.1 84.3 22 5.3 41.6
10:20 1015 29.97 844 24.92 29.4 84.8 21 5.1 41.2
10:25 1015 29.97 844 24.92 29.5 85.1 21 5 41.1
10:30 1015 29.97 844 24.92 29.2 84.5 22 5.5 41.9
10:35 1015 29.97 844 24.92 29.4 85 22 5.7 42.3
10:40 1015 29.97 844 24.92 29.6 85.3 22 5.9 42.6
10:45 1015 29.97 844 24.92 29.6 85.3 22 5.8 42.4
10:50 1015 29.97 844 24.92 29.7 85.5 22 5.8 42.5
10:55 1015 29.97 844 24.92 30.1 86.1 22 6.5 43.6
11:00 1015 29.97 844 24.92 30.1 86.1 23 7.2 45
11:05 1015 29.97 844 24.92 29 84.2 24 6.7 44.1
11:10 1015 29.97 844 24.92 29 84.1 25 7.1 44.7
11:15 1015 29.97 844 24.92 29.3 84.8 24 7 44.5
11:20 1014 29.94 844 24.92 29.3 84.8 24 6.9 44.4
11:25 1014 29.94 844 24.92 30.1 86.1 25 8.4 47.2
11:30 1014 29.94 844 24.92 30.1 86.2 25 8.3 46.9
11:35 1014 29.94 843 24.89 30.1 86.2 25 8 46.5
11:40 1014 29.94 843 24.89 30.3 86.5 24 7.7 45.8
11:45 1014 29.94 843 24.89 30.6 87.1 23 7.3 45.1
11:50 1014 29.94 843 24.89 30.6 87.2 22 6.7 44
11:55 1014 29.94 843 24.89 31.2 88.1 22 7 44.6
12:00 1014 29.94 843 24.89 31.5 88.7 21 7.2 44.9
12:05 1014 29.94 843 24.89 31.5 88.7 21 7.2 44.9
12:10 1014 29.94 843 24.89 31.9 89.4 21 7.4 45.3
12:15 1014 29.94 843 24.89 31.9 89.5 21 7.2 44.9
12:20 1014 29.94 843 24.89 31.5 88.7 21 6.8 44.3
12:25 1014 29.94 843 24.89 31.4 88.4 21 6.6 43.9
12:30 1014 29.94 843 24.89 30.9 87.6 22 7 44.5
12:35 1014 29.94 843 24.89 31 87.9 21 6.7 44
12:40 1014 29.94 843 24.89 31.4 88.5 20 6 42.9
12:45 1013 29.91 843 24.89 31.7 89.1 20 6.5 43.7
12:50 1013 29.91 843 24.89 31.7 89.1 20 6.5 43.7
12:55 1013 29.91 843 24.89 32.4 90.4 20 7.1 44.7
13:00 1013 29.91 843 24.89 33.1 91.5 19 7.1 44.7
13:05 1013 29.91 843 24.89 33.3 91.9 19 6.6 43.9
13:10 1013 29.91 843 24.89 33 91.4 19 6.7 44.1
13:15 1013 29.91 842 24.86 32.6 90.6 19 6.6 43.8
13:20 1013 29.91 842 24.86 33.1 91.5 19 6.8 44.2
13:25 1013 29.91 842 24.86 33.6 92.5 18 6.1 43
13:30 1013 29.91 842 24.86 34 93.1 17 5.9 42.6
13:35 1013 29.91 842 24.86 34.3 93.7 16 5.2 41.4
13:40 1013 29.91 842 24.86 34.4 93.9 16 5.4 41.8
13:45 1013 29.91 842 24.86 34.9 94.9 16 5.8 42.4
13:50 1013 29.91 842 24.86 35.1 95.1 16 5.7 42.3
13:55 1013 29.91 842 24.86 35.3 95.5 17 7 44.6
14:00 1013 29.91 842 24.86 35.1 95.1 16 5.8 42.5
14:05 1013 29.91 842 24.86 35.1 95.1 18 7.3 45.1
14:10 1013 29.91 842 24.86 35.5 95.9 16 6.2 43.1
14:15 1013 29.91 842 24.86 35.3 95.5 15 5.4 41.6
14:20 1013 29.91 842 24.86 34.6 94.4 16 5.4 41.7
14:25 1012 29.88 842 24.86 34.3 93.8 15 4.5 40
14:30 1012 29.88 842 24.86 34.2 93.6 15 4.1 39.3
14:35 1012 29.88 842 24.86 34.1 93.3 14 3.5 38.3
14:40 1012 29.88 842 24.86 34.5 94.1 14 3.3 37.9
14:45 1012 29.88 842 24.86 34.5 94.1 14 3.6 38.5
14:50 1012 29.88 842 24.86 35 95 14 3.5 38.3
14:55 1012 29.88 842 24.86 35.2 95.4 14 4.6 40.2
15:00 1012 29.88 841 24.83 35.4 95.7 14 4.6 40.2
15:05 1012 29.88 841 24.83 35.2 95.3 14 4.6 40.2
15:10 1012 29.88 841 24.83 35.6 96.1 14 4.4 39.9
15:15 1012 29.88 841 24.83 34.6 94.2 15 4.3 39.8
15:20 1012 29.88 841 24.83 34.7 94.4 15 4.6 40.3
15:25 1012 29.88 841 24.83 35.4 95.6 14 4.5 40.1
15:30 1012 29.88 841 24.83 34.9 94.9 15 5 41
15:35 1012 29.88 841 24.83 35.2 95.4 15 5.4 41.7
15:40 1012 29.88 841 24.83 35.7 96.2 15 5.5 41.8
15:45 1012 29.88 841 24.83 35.8 96.4 15 5.3 41.6
15:50 1012 29.88 841 24.83 36 96.9 15 5.7 42.2
15:55 1012 29.88 841 24.83 36 96.8 14 5.1 41.2
16:00 1012 29.88 841 24.83 35.5 95.8 14 4.7 40.5
16:05 1012 29.88 841 24.83 35.6 96.1 14 4.4 40
16:10 1012 29.88 841 24.83 35.8 96.4 14 4.8 40.7
16:15 1012 29.88 841 24.83 35.7 96.2 14 4.6 40.3
16:20 1012 29.88 841 24.83 35.3 95.6 14 4.1 39.4
16:25 1012 29.88 841 24.83 35.2 95.4 14 4.6 40.3
16:30 1012 29.88 841 24.83 35.5 95.9 14 4.1 39.4
16:35 1012 29.88 841 24.83 35.6 96.1 14 4 39.2
16:40 1012 29.88 841 24.83 35.6 96.2 14 4.4 39.8
16:45 1012 29.88 841 24.83 35.6 96.1 14 4.5 40.2
16:50 1012 29.88 841 24.83 35.8 96.4 14 4.2 39.6
16:55 1012 29.88 841 24.83 35.2 95.4 14 4 39.2
17:00 1012 29.88 841 24.83 34.3 93.7 14 3.1 37.6
17:05 1012 29.88 841 24.83 34.5 94 14 3.6 38.6
17:10 1012 29.88 841 24.83 34.8 94.7 14 3.7 38.6
17:15 1012 29.88 841 24.83 35.1 95.1 14 4.4 39.9
17:20 1012 29.88 841 24.83 34.9 94.7 15 4.6 40.3
17:25 1012 29.88 841 24.83 34.8 94.6 15 4.5 40.1
17:30 1012 29.88 841 24.83 35.3 95.5 14 4.4 40
17:35 1011 29.85 841 24.83 35.8 96.5 13 4 39.3
17:40 1011 29.85 841 24.83 35.7 96.2 14 4.8 40.6
17:45 1011 29.85 841 24.83 34.7 94.4 14 3.7 38.7
17:50 1012 29.88 841 24.83 34.1 93.3 14 3.3 38
17:55 1011 29.85 841 24.83 33.8 92.8 15 4.2 39.5
18:00 1011 29.85 841 24.83 33.4 92.1 14 3 37.3
18:05 1011 29.85 841 24.83 33.5 92.3 15 3.8 38.8
18:10 1011 29.85 841 24.83 33.8 92.8 14 3.5 38.2
18:15 1011 29.85 841 24.83 34.1 93.5 14 3.1 37.7
18:20 1011 29.85 840 24.81 34.2 93.6 13 1.8 35.2
18:25 1011 29.85 840 24.81 34.5 94.1 12 1.9 35.5
18:30 1011 29.85 840 24.81 34.6 94.3 13 3 37.3
18:35 1011 29.85 840 24.81 34.4 93.9 14 3.3 38
18:40 1011 29.85 840 24.81 34.1 93.4 13 2.1 35.8
18:45 1011 29.85 840 24.81 34.3 93.7 13 2.7 36.9
18:50 1011 29.85 840 24.81 34.2 93.6 13 2.8 37
18:55 1011 29.85 840 24.81 34.4 93.9 14 3.2 37.7
19:00 1011 29.85 840 24.81 34.4 93.9 14 3.2 37.7
19:05 1011 29.85 840 24.81 34.6 94.2 13 3 37.4
19:10 1011 29.85 840 24.81 34.5 94.2 13 2.2 36
19:15 1011 29.85 840 24.81 34.4 93.9 13 2.2 36
19:20 1011 29.85 840 24.81 34.1 93.4 13 2.6 36.6
19:25 1011 29.85 840 24.81 33.7 92.7 14 3.4 38.1
19:30 1011 29.85 840 24.81 33.6 92.4 15 3.9 39
19:35 1011 29.85 840 24.81 33.3 91.9 15 3.8 38.8
19:40 1011 29.85 840 24.81 32.9 91.2 16 3.9 39.1
19:45 1011 29.85 840 24.81 32.5 90.5 15 3.1 37.5
19:50 1011 29.85 840 24.81 32.1 89.8 15 3 37.3
19:55 1011 29.85 840 24.81 31.7 89.1 15 2.6 36.6
20:00 1011 29.85 840 24.81 31.4 88.5 15 2.5 36.4
20:05 1011 29.85 840 24.81 31.1 87.9 15 1.9 35.3
20:10 1011 29.85 840 24.81 31 87.9 15 1.9 35.5
20:15 1011 29.85 840 24.81 30.8 87.4 16 2.2 35.9
20:20 1011 29.85 840 24.81 30.5 86.9 18 3.5 38.4
20:25 1011 29.85 840 24.81 30.1 86.1 16 2.2 35.9
20:30 1011 29.85 840 24.81 30 86.1 15 0.9 33.6
20:35 1011 29.85 840 24.81 30.3 86.5 16 2.3 36.1
20:40 1011 29.85 840 24.81 29.2 84.6 19 3.2 37.7
20:45 1011 29.85 840 24.81 28.8 83.8 18 2.2 36
20:50 1011 29.85 840 24.81 28.9 84.1 17 2 35.6
20:55 1011 29.85 840 24.81 29 84.3 18 2.4 36.2
21:00 1011 29.85 840 24.81 29.1 84.4 16 1.3 34.3
21:05 1011 29.85 840 24.81 29.3 84.8 16 0.9 33.6
21:10 1011 29.85 840 24.81 29.6 85.2 15 0.8 33.4
21:15 1011 29.85 840 24.81 29.6 85.2 15 0.9 33.7
21:20 1011 29.85 841 24.83 29.6 85.3 16 1.1 33.9
21:25 1011 29.85 841 24.83 29.6 85.2 15 0.8 33.5
21:30 1011 29.85 841 24.83 29.7 85.4 15 1 33.8
21:35 1011 29.85 841 24.83 29.8 85.7 15 0.8 33.4
21:40 1011 29.85 841 24.83 29.8 85.6 15 0.9 33.6
21:45 1012 29.88 841 24.83 29.9 85.8 15 1.1 33.9
21:50 1012 29.88 841 24.83 29.9 85.9 15 1.2 34.2
21:55 1012 29.88 841 24.83 29.9 85.8 16 1.5 34.7
22:00 1012 29.88 841 24.83 30 85.9 16 1.6 34.9
22:05 1012 29.88 841 24.83 29.6 85.4 16 1.8 35.2
22:10 1012 29.88 841 24.83 29.7 85.5 16 1.5 34.7
22:15 1012 29.88 841 24.83 29.9 85.8 16 1.7 35
22:20 1012 29.88 841 24.83 29.9 85.8 16 1.8 35.2
22:25 1012 29.88 841 24.83 29.6 85.2 16 1.4 34.6
22:30 1011 29.85 841 24.83 30.2 86.4 16 1.6 34.8
22:35 1011 29.85 841 24.83 30.2 86.4 16 1.6 34.8
22:40 1011 29.85 841 24.83 30.3 86.5 15 1.6 34.8
22:45 1011 29.85 841 24.83 30.5 86.8 15 1.6 34.9
22:50 1011 29.85 841 24.83 30.4 86.7 16 1.8 35.2
22:55 1011 29.85 841 24.83 30 85.9 16 1.3 34.4
23:00 1011 29.85 841 24.83 30.1 86.2 16 1.7 35.1
23:05 1011 29.85 841 24.83 29.7 85.5 16 1.4 34.5
23:10 1011 29.85 841 24.83 30.3 86.5 15 1.2 34.1
23:15 1011 29.85 841 24.83 29.9 85.8 16 1.9 35.3
23:20 1011 29.85 841 24.83 29.8 85.6 16 1.3 34.3
23:25 1011 29.85 841 24.83 30.1 86.1 16 1.5 34.7
23:30 1011 29.85 841 24.83 30 85.9 16 1.8 35.3
23:35 1011 29.85 841 24.83 29.2 84.5 18 2.6 36.6
23:40 1011 29.85 841 24.83 29.1 84.3 16 1 33.9
23:45 1011 29.85 841 24.83 29.2 84.5 18 2.6 36.8
23:50 1011 29.85 841 24.83 28.9 84.1 17 2 35.7
23:55 1011 29.85 841 24.83 28.7 83.7 17 1.8 35.2
24:00 1011 29.85 841 24.83 28.8 83.8 18 2.2 35.9